sensor_id;sensor_type;location;lat;lon;timestamp;P1;durP1;ratioP1;P2;durP2;ratioP2
76035;SDS011;64732;56.314;44.068;2023-02-15T00:01:22;30.85;;;14.82;;
76035;SDS011;64732;56.314;44.068;2023-02-15T00:03:43;32.30;;;13.30;;
76035;SDS011;64732;56.314;44.068;2023-02-15T00:06:07;37.65;;;14.15;;
76035;SDS011;64732;56.314;44.068;2023-02-15T00:08:28;29.98;;;11.88;;
76035;SDS011;64732;56.314;44.068;2023-02-15T00:10:50;24.98;;;10.18;;
76035;SDS011;64732;56.314;44.068;2023-02-15T00:13:11;31.60;;;12.85;;
76035;SDS011;64732;56.314;44.068;2023-02-15T00:15:34;28.55;;;9.02;;
76035;SDS011;64732;56.314;44.068;2023-02-15T00:17:56;18.92;;;7.63;;
76035;SDS011;64732;56.314;44.068;2023-02-15T00:20:17;20.17;;;7.72;;
76035;SDS011;64732;56.314;44.068;2023-02-15T00:22:38;26.85;;;10.88;;
76035;SDS011;64732;56.314;44.068;2023-02-15T00:24:59;39.75;;;14.77;;
76035;SDS011;64732;56.314;44.068;2023-02-15T00:27:20;35.65;;;13.68;;
76035;SDS011;64732;56.314;44.068;2023-02-15T00:29:42;24.40;;;8.60;;
76035;SDS011;64732;56.314;44.068;2023-02-15T00:32:05;29.38;;;12.52;;
76035;SDS011;64732;56.314;44.068;2023-02-15T00:34:29;37.58;;;14.80;;
76035;SDS011;64732;56.314;44.068;2023-02-15T00:36:52;30.38;;;11.57;;
76035;SDS011;64732;56.314;44.068;2023-02-15T00:39:33;35.13;;;12.55;;
76035;SDS011;64732;56.314;44.068;2023-02-15T00:42:06;30.45;;;13.65;;
76035;SDS011;64732;56.314;44.068;2023-02-15T00:44:42;34.28;;;12.20;;
76035;SDS011;64732;56.314;44.068;2023-02-15T00:47:31;34.72;;;13.25;;
76035;SDS011;64732;56.314;44.068;2023-02-15T00:50:09;31.15;;;13.45;;
76035;SDS011;64732;56.314;44.068;2023-02-15T00:52:50;32.80;;;13.35;;
76035;SDS011;64732;56.314;44.068;2023-02-15T00:55:24;24.45;;;10.57;;
76035;SDS011;64732;56.314;44.068;2023-02-15T01:00:49;34.95;;;13.63;;
76035;SDS011;64732;56.314;44.068;2023-02-15T01:03:20;42.97;;;14.98;;
76035;SDS011;64732;56.314;44.068;2023-02-15T01:05:41;35.22;;;14.20;;
76035;SDS011;64732;56.314;44.068;2023-02-15T01:08:03;37.75;;;15.52;;
76035;SDS011;64732;56.314;44.068;2023-02-15T01:10:24;36.58;;;15.60;;
76035;SDS011;64732;56.314;44.068;2023-02-15T01:12:46;36.30;;;15.18;;
76035;SDS011;64732;56.314;44.068;2023-02-15T01:15:08;37.15;;;15.15;;
76035;SDS011;64732;56.314;44.068;2023-02-15T01:17:30;32.22;;;13.80;;
76035;SDS011;64732;56.314;44.068;2023-02-15T01:19:54;34.10;;;14.80;;
76035;SDS011;64732;56.314;44.068;2023-02-15T01:22:15;39.80;;;14.95;;
76035;SDS011;64732;56.314;44.068;2023-02-15T01:24:36;37.42;;;15.43;;
76035;SDS011;64732;56.314;44.068;2023-02-15T01:26:57;34.60;;;13.85;;
76035;SDS011;64732;56.314;44.068;2023-02-15T01:29:18;36.78;;;14.40;;
76035;SDS011;64732;56.314;44.068;2023-02-15T01:31:40;34.90;;;14.32;;
76035;SDS011;64732;56.314;44.068;2023-02-15T01:34:01;36.95;;;13.95;;
76035;SDS011;64732;56.314;44.068;2023-02-15T01:36:25;31.98;;;13.68;;
76035;SDS011;64732;56.314;44.068;2023-02-15T01:38:46;32.78;;;14.27;;
76035;SDS011;64732;56.314;44.068;2023-02-15T01:41:07;32.97;;;13.48;;
76035;SDS011;64732;56.314;44.068;2023-02-15T01:43:38;33.67;;;13.15;;
76035;SDS011;64732;56.314;44.068;2023-02-15T01:46:00;31.90;;;13.30;;
76035;SDS011;64732;56.314;44.068;2023-02-15T01:48:22;30.67;;;12.55;;
76035;SDS011;64732;56.314;44.068;2023-02-15T01:50:45;32.22;;;12.43;;
76035;SDS011;64732;56.314;44.068;2023-02-15T01:53:12;30.95;;;12.88;;
76035;SDS011;64732;56.314;44.068;2023-02-15T01:55:36;27.27;;;11.55;;
76035;SDS011;64732;56.314;44.068;2023-02-15T01:58:01;28.15;;;12.77;;
76035;SDS011;64732;56.314;44.068;2023-02-15T02:00:22;34.40;;;13.43;;
76035;SDS011;64732;56.314;44.068;2023-02-15T02:02:43;33.13;;;12.32;;
76035;SDS011;64732;56.314;44.068;2023-02-15T02:05:06;30.20;;;11.90;;
76035;SDS011;64732;56.314;44.068;2023-02-15T02:07:28;34.38;;;11.90;;
76035;SDS011;64732;56.314;44.068;2023-02-15T02:09:52;27.42;;;11.38;;
76035;SDS011;64732;56.314;44.068;2023-02-15T02:12:13;26.52;;;11.57;;
76035;SDS011;64732;56.314;44.068;2023-02-15T02:14:35;32.03;;;11.85;;
76035;SDS011;64732;56.314;44.068;2023-02-15T02:16:57;29.33;;;14.23;;
76035;SDS011;64732;56.314;44.068;2023-02-15T02:25:15;25.45;;;11.45;;
76035;SDS011;64732;56.314;44.068;2023-02-15T02:27:44;27.75;;;11.57;;
76035;SDS011;64732;56.314;44.068;2023-02-15T02:30:15;35.40;;;13.02;;
76035;SDS011;64732;56.314;44.068;2023-02-15T02:33:15;24.88;;;10.98;;
76035;SDS011;64732;56.314;44.068;2023-02-15T02:35:43;29.23;;;13.02;;
76035;SDS011;64732;56.314;44.068;2023-02-15T02:38:08;29.40;;;11.38;;
76035;SDS011;64732;56.314;44.068;2023-02-15T02:40:37;34.90;;;14.00;;
76035;SDS011;64732;56.314;44.068;2023-02-15T02:43:05;33.15;;;12.43;;
76035;SDS011;64732;56.314;44.068;2023-02-15T02:45:32;25.35;;;11.32;;
76035;SDS011;64732;56.314;44.068;2023-02-15T02:47:59;28.63;;;11.77;;
76035;SDS011;64732;56.314;44.068;2023-02-15T02:50:28;30.98;;;12.23;;
76035;SDS011;64732;56.314;44.068;2023-02-15T02:52:50;26.40;;;11.93;;
76035;SDS011;64732;56.314;44.068;2023-02-15T02:55:13;31.60;;;12.25;;
76035;SDS011;64732;56.314;44.068;2023-02-15T02:57:37;29.73;;;12.85;;
76035;SDS011;64732;56.314;44.068;2023-02-15T03:00:03;29.77;;;12.63;;
76035;SDS011;64732;56.314;44.068;2023-02-15T03:02:26;26.88;;;12.45;;
76035;SDS011;64732;56.314;44.068;2023-02-15T03:04:51;29.33;;;11.88;;
76035;SDS011;64732;56.314;44.068;2023-02-15T03:07:20;25.95;;;11.45;;
76035;SDS011;64732;56.314;44.068;2023-02-15T03:09:44;30.15;;;12.10;;
76035;SDS011;64732;56.314;44.068;2023-02-15T03:12:06;30.10;;;12.70;;
76035;SDS011;64732;56.314;44.068;2023-02-15T03:14:27;26.30;;;11.35;;
76035;SDS011;64732;56.314;44.068;2023-02-15T03:16:48;33.58;;;13.18;;
76035;SDS011;64732;56.314;44.068;2023-02-15T03:19:11;28.08;;;11.85;;
76035;SDS011;64732;56.314;44.068;2023-02-15T03:21:35;29.77;;;13.20;;
76035;SDS011;64732;56.314;44.068;2023-02-15T03:24:03;29.83;;;12.05;;
76035;SDS011;64732;56.314;44.068;2023-02-15T03:26:26;30.10;;;11.57;;
76035;SDS011;64732;56.314;44.068;2023-02-15T03:28:49;24.65;;;10.27;;
76035;SDS011;64732;56.314;44.068;2023-02-15T03:31:11;27.15;;;11.13;;
76035;SDS011;64732;56.314;44.068;2023-02-15T03:33:33;26.27;;;10.30;;
76035;SDS011;64732;56.314;44.068;2023-02-15T03:35:57;25.02;;;10.82;;
76035;SDS011;64732;56.314;44.068;2023-02-15T03:38:25;26.45;;;11.35;;
76035;SDS011;64732;56.314;44.068;2023-02-15T03:40:51;29.30;;;11.40;;
76035;SDS011;64732;56.314;44.068;2023-02-15T03:43:15;30.30;;;13.07;;
76035;SDS011;64732;56.314;44.068;2023-02-15T03:45:38;26.85;;;12.10;;
76035;SDS011;64732;56.314;44.068;2023-02-15T03:48:01;28.95;;;12.32;;
76035;SDS011;64732;56.314;44.068;2023-02-15T03:50:24;24.55;;;10.52;;
76035;SDS011;64732;56.314;44.068;2023-02-15T03:52:48;26.00;;;12.35;;
76035;SDS011;64732;56.314;44.068;2023-02-15T03:55:09;25.23;;;11.38;;
76035;SDS011;64732;56.314;44.068;2023-02-15T03:57:34;29.58;;;12.02;;
76035;SDS011;64732;56.314;44.068;2023-02-15T03:59:56;27.60;;;11.77;;
76035;SDS011;64732;56.314;44.068;2023-02-15T04:02:19;31.00;;;11.40;;
76035;SDS011;64732;56.314;44.068;2023-02-15T04:04:43;27.27;;;11.55;;
76035;SDS011;64732;56.314;44.068;2023-02-15T04:07:07;24.67;;;11.75;;
76035;SDS011;64732;56.314;44.068;2023-02-15T04:09:29;28.60;;;11.75;;
76035;SDS011;64732;56.314;44.068;2023-02-15T04:11:50;26.02;;;11.20;;
76035;SDS011;64732;56.314;44.068;2023-02-15T04:14:14;28.52;;;11.65;;
76035;SDS011;64732;56.314;44.068;2023-02-15T04:16:35;24.60;;;10.88;;
76035;SDS011;64732;56.314;44.068;2023-02-15T04:18:56;27.23;;;11.43;;
76035;SDS011;64732;56.314;44.068;2023-02-15T04:21:17;31.35;;;11.98;;
76035;SDS011;64732;56.314;44.068;2023-02-15T04:23:38;28.00;;;12.75;;
76035;SDS011;64732;56.314;44.068;2023-02-15T04:26:02;32.60;;;14.38;;
76035;SDS011;64732;56.314;44.068;2023-02-15T04:28:23;39.05;;;15.02;;
76035;SDS011;64732;56.314;44.068;2023-02-15T04:30:47;31.58;;;14.07;;
76035;SDS011;64732;56.314;44.068;2023-02-15T04:33:08;31.23;;;13.90;;
76035;SDS011;64732;56.314;44.068;2023-02-15T04:35:29;28.92;;;13.02;;
76035;SDS011;64732;56.314;44.068;2023-02-15T04:37:50;30.85;;;12.95;;
76035;SDS011;64732;56.314;44.068;2023-02-15T04:40:12;30.73;;;14.93;;
76035;SDS011;64732;56.314;44.068;2023-02-15T04:42:35;33.38;;;13.15;;
76035;SDS011;64732;56.314;44.068;2023-02-15T04:44:56;30.27;;;13.18;;
76035;SDS011;64732;56.314;44.068;2023-02-15T04:47:19;29.23;;;12.82;;
76035;SDS011;64732;56.314;44.068;2023-02-15T04:49:41;28.77;;;12.32;;
76035;SDS011;64732;56.314;44.068;2023-02-15T04:52:02;27.13;;;11.73;;
76035;SDS011;64732;56.314;44.068;2023-02-15T04:54:23;29.90;;;12.25;;
76035;SDS011;64732;56.314;44.068;2023-02-15T04:56:44;23.38;;;10.40;;
76035;SDS011;64732;56.314;44.068;2023-02-15T04:59:05;28.60;;;11.15;;
76035;SDS011;64732;56.314;44.068;2023-02-15T05:01:26;28.75;;;11.85;;
76035;SDS011;64732;56.314;44.068;2023-02-15T05:03:50;35.67;;;13.48;;
76035;SDS011;64732;56.314;44.068;2023-02-15T05:06:11;32.10;;;13.60;;
76035;SDS011;64732;56.314;44.068;2023-02-15T05:08:32;28.63;;;13.52;;
76035;SDS011;64732;56.314;44.068;2023-02-15T05:10:53;27.95;;;12.63;;
76035;SDS011;64732;56.314;44.068;2023-02-15T05:13:14;28.83;;;12.35;;
76035;SDS011;64732;56.314;44.068;2023-02-15T05:15:35;28.80;;;11.13;;
76035;SDS011;64732;56.314;44.068;2023-02-15T05:17:56;31.17;;;13.05;;
76035;SDS011;64732;56.314;44.068;2023-02-15T05:20:20;26.40;;;12.27;;
76035;SDS011;64732;56.314;44.068;2023-02-15T05:22:41;29.70;;;13.60;;
76035;SDS011;64732;56.314;44.068;2023-02-15T05:25:02;29.15;;;12.73;;
76035;SDS011;64732;56.314;44.068;2023-02-15T05:27:24;25.67;;;12.27;;
76035;SDS011;64732;56.314;44.068;2023-02-15T05:29:45;24.95;;;11.82;;
76035;SDS011;64732;56.314;44.068;2023-02-15T05:32:06;28.77;;;12.65;;
76035;SDS011;64732;56.314;44.068;2023-02-15T05:34:31;33.63;;;13.35;;
76035;SDS011;64732;56.314;44.068;2023-02-15T05:36:54;27.90;;;11.20;;
76035;SDS011;64732;56.314;44.068;2023-02-15T05:39:15;29.30;;;11.65;;
76035;SDS011;64732;56.314;44.068;2023-02-15T05:41:36;29.63;;;12.55;;
76035;SDS011;64732;56.314;44.068;2023-02-15T05:43:57;27.75;;;12.18;;
76035;SDS011;64732;56.314;44.068;2023-02-15T05:46:18;24.60;;;11.10;;
76035;SDS011;64732;56.314;44.068;2023-02-15T05:48:39;25.70;;;11.27;;
76035;SDS011;64732;56.314;44.068;2023-02-15T05:51:01;25.05;;;10.50;;
76035;SDS011;64732;56.314;44.068;2023-02-15T05:53:26;26.58;;;11.40;;
76035;SDS011;64732;56.314;44.068;2023-02-15T05:55:50;29.13;;;13.25;;
76035;SDS011;64732;56.314;44.068;2023-02-15T05:58:11;24.30;;;10.07;;
76035;SDS011;64732;56.314;44.068;2023-02-15T06:00:32;24.05;;;11.60;;
76035;SDS011;64732;56.314;44.068;2023-02-15T06:02:53;25.10;;;11.80;;
76035;SDS011;64732;56.314;44.068;2023-02-15T06:05:14;24.48;;;11.80;;
76035;SDS011;64732;56.314;44.068;2023-02-15T06:07:35;23.02;;;10.88;;
76035;SDS011;64732;56.314;44.068;2023-02-15T06:09:59;22.23;;;9.60;;
76035;SDS011;64732;56.314;44.068;2023-02-15T06:12:20;19.25;;;8.60;;
76035;SDS011;64732;56.314;44.068;2023-02-15T06:14:40;23.48;;;9.93;;
76035;SDS011;64732;56.314;44.068;2023-02-15T06:17:02;22.10;;;10.68;;
76035;SDS011;64732;56.314;44.068;2023-02-15T06:19:22;20.58;;;9.77;;
76035;SDS011;64732;56.314;44.068;2023-02-15T06:21:43;22.70;;;10.57;;
76035;SDS011;64732;56.314;44.068;2023-02-15T06:24:05;26.20;;;10.75;;
76035;SDS011;64732;56.314;44.068;2023-02-15T06:26:28;23.25;;;10.27;;
76035;SDS011;64732;56.314;44.068;2023-02-15T06:28:50;16.05;;;8.43;;
76035;SDS011;64732;56.314;44.068;2023-02-15T06:31:11;21.83;;;11.00;;
76035;SDS011;64732;56.314;44.068;2023-02-15T06:33:32;21.25;;;9.63;;
76035;SDS011;64732;56.314;44.068;2023-02-15T06:35:53;21.40;;;10.90;;
76035;SDS011;64732;56.314;44.068;2023-02-15T06:38:14;21.52;;;10.60;;
76035;SDS011;64732;56.314;44.068;2023-02-15T06:40:35;25.58;;;11.00;;
76035;SDS011;64732;56.314;44.068;2023-02-15T06:43:00;23.65;;;10.48;;
76035;SDS011;64732;56.314;44.068;2023-02-15T06:45:21;20.05;;;10.57;;
76035;SDS011;64732;56.314;44.068;2023-02-15T06:47:43;24.50;;;10.80;;
76035;SDS011;64732;56.314;44.068;2023-02-15T06:50:04;24.10;;;11.50;;
76035;SDS011;64732;56.314;44.068;2023-02-15T06:52:26;24.23;;;10.60;;
76035;SDS011;64732;56.314;44.068;2023-02-15T06:54:48;23.15;;;11.25;;
76035;SDS011;64732;56.314;44.068;2023-02-15T06:57:09;26.52;;;11.60;;
76035;SDS011;64732;56.314;44.068;2023-02-15T06:59:32;24.58;;;10.68;;
76035;SDS011;64732;56.314;44.068;2023-02-15T07:01:58;22.38;;;9.73;;
76035;SDS011;64732;56.314;44.068;2023-02-15T07:04:19;23.00;;;11.38;;
76035;SDS011;64732;56.314;44.068;2023-02-15T07:06:40;22.70;;;11.00;;
76035;SDS011;64732;56.314;44.068;2023-02-15T07:09:06;20.58;;;10.40;;
76035;SDS011;64732;56.314;44.068;2023-02-15T07:11:27;25.15;;;10.63;;
76035;SDS011;64732;56.314;44.068;2023-02-15T07:13:48;21.17;;;9.45;;
76035;SDS011;64732;56.314;44.068;2023-02-15T07:16:14;22.73;;;10.88;;
76035;SDS011;64732;56.314;44.068;2023-02-15T07:18:35;25.45;;;12.00;;
76035;SDS011;64732;56.314;44.068;2023-02-15T07:20:58;22.02;;;11.10;;
76035;SDS011;64732;56.314;44.068;2023-02-15T07:23:29;20.00;;;9.15;;
76035;SDS011;64732;56.314;44.068;2023-02-15T07:25:56;25.00;;;10.60;;
76035;SDS011;64732;56.314;44.068;2023-02-15T07:28:17;21.38;;;9.95;;
76035;SDS011;64732;56.314;44.068;2023-02-15T07:30:40;18.15;;;9.25;;
76035;SDS011;64732;56.314;44.068;2023-02-15T07:33:03;24.13;;;10.07;;
76035;SDS011;64732;56.314;44.068;2023-02-15T07:35:24;21.08;;;9.45;;
76035;SDS011;64732;56.314;44.068;2023-02-15T07:37:47;18.90;;;10.25;;
76035;SDS011;64732;56.314;44.068;2023-02-15T07:40:09;20.17;;;8.50;;
76035;SDS011;64732;56.314;44.068;2023-02-15T07:42:30;18.50;;;9.05;;
76035;SDS011;64732;56.314;44.068;2023-02-15T07:44:51;19.02;;;9.85;;
76035;SDS011;64732;56.314;44.068;2023-02-15T07:47:13;19.52;;;9.35;;
76035;SDS011;64732;56.314;44.068;2023-02-15T07:49:37;20.27;;;10.82;;
76035;SDS011;64732;56.314;44.068;2023-02-15T07:52:00;22.35;;;10.20;;
76035;SDS011;64732;56.314;44.068;2023-02-15T07:54:21;20.73;;;10.88;;
76035;SDS011;64732;56.314;44.068;2023-02-15T07:56:42;18.55;;;9.50;;
76035;SDS011;64732;56.314;44.068;2023-02-15T07:59:03;27.27;;;11.30;;
76035;SDS011;64732;56.314;44.068;2023-02-15T08:01:25;23.80;;;10.43;;
76035;SDS011;64732;56.314;44.068;2023-02-15T08:03:47;18.40;;;8.82;;
76035;SDS011;64732;56.314;44.068;2023-02-15T08:06:11;19.08;;;10.07;;
76035;SDS011;64732;56.314;44.068;2023-02-15T08:08:33;17.70;;;9.07;;
76035;SDS011;64732;56.314;44.068;2023-02-15T08:10:56;20.60;;;9.85;;
76035;SDS011;64732;56.314;44.068;2023-02-15T08:13:18;20.40;;;9.85;;
76035;SDS011;64732;56.314;44.068;2023-02-15T08:15:47;19.88;;;10.45;;
76035;SDS011;64732;56.314;44.068;2023-02-15T08:18:08;20.10;;;9.65;;
76035;SDS011;64732;56.314;44.068;2023-02-15T08:20:29;18.05;;;8.88;;
76035;SDS011;64732;56.314;44.068;2023-02-15T08:22:54;16.30;;;8.95;;
76035;SDS011;64732;56.314;44.068;2023-02-15T08:27:46;17.98;;;9.50;;
76035;SDS011;64732;56.314;44.068;2023-02-15T08:30:07;18.50;;;8.93;;
76035;SDS011;64732;56.314;44.068;2023-02-15T08:32:29;20.27;;;9.57;;
76035;SDS011;64732;56.314;44.068;2023-02-15T08:34:50;14.95;;;7.13;;
76035;SDS011;64732;56.314;44.068;2023-02-15T08:37:11;12.30;;;6.32;;
76035;SDS011;64732;56.314;44.068;2023-02-15T08:39:35;19.45;;;9.38;;
76035;SDS011;64732;56.314;44.068;2023-02-15T08:41:57;17.65;;;8.40;;
76035;SDS011;64732;56.314;44.068;2023-02-15T08:44:19;14.25;;;6.28;;
76035;SDS011;64732;56.314;44.068;2023-02-15T08:46:41;17.50;;;7.72;;
76035;SDS011;64732;56.314;44.068;2023-02-15T08:49:04;14.43;;;6.65;;
76035;SDS011;64732;56.314;44.068;2023-02-15T08:51:26;18.10;;;9.07;;
76035;SDS011;64732;56.314;44.068;2023-02-15T08:53:51;21.17;;;6.03;;
76035;SDS011;64732;56.314;44.068;2023-02-15T08:56:20;13.45;;;6.22;;
76035;SDS011;64732;56.314;44.068;2023-02-15T09:11:54;13.93;;;7.50;;
76035;SDS011;64732;56.314;44.068;2023-02-15T09:14:15;15.52;;;7.68;;
76035;SDS011;64732;56.314;44.068;2023-02-15T09:16:37;19.88;;;9.60;;
76035;SDS011;64732;56.314;44.068;2023-02-15T09:18:58;16.35;;;8.32;;
76035;SDS011;64732;56.314;44.068;2023-02-15T09:21:20;14.98;;;7.60;;
76035;SDS011;64732;56.314;44.068;2023-02-15T09:23:45;15.27;;;8.55;;
76035;SDS011;64732;56.314;44.068;2023-02-15T09:26:07;16.85;;;9.38;;
76035;SDS011;64732;56.314;44.068;2023-02-15T09:28:32;17.02;;;9.05;;
76035;SDS011;64732;56.314;44.068;2023-02-15T09:30:57;15.10;;;8.38;;
76035;SDS011;64732;56.314;44.068;2023-02-15T09:33:25;16.73;;;9.13;;
76035;SDS011;64732;56.314;44.068;2023-02-15T09:35:46;16.52;;;8.65;;
76035;SDS011;64732;56.314;44.068;2023-02-15T09:38:07;15.45;;;7.72;;
76035;SDS011;64732;56.314;44.068;2023-02-15T09:40:28;13.52;;;7.65;;
76035;SDS011;64732;56.314;44.068;2023-02-15T09:43:03;17.38;;;8.20;;
76035;SDS011;64732;56.314;44.068;2023-02-15T09:45:35;11.73;;;6.15;;
76035;SDS011;64732;56.314;44.068;2023-02-15T09:48:16;15.23;;;6.97;;
76035;SDS011;64732;56.314;44.068;2023-02-15T09:50:43;15.25;;;8.35;;
76035;SDS011;64732;56.314;44.068;2023-02-15T09:53:23;15.25;;;7.53;;
76035;SDS011;64732;56.314;44.068;2023-02-15T09:55:54;16.88;;;8.75;;
76035;SDS011;64732;56.314;44.068;2023-02-15T09:58:24;13.13;;;7.28;;
76035;SDS011;64732;56.314;44.068;2023-02-15T10:00:57;15.73;;;8.07;;
76035;SDS011;64732;56.314;44.068;2023-02-15T10:03:25;13.32;;;6.68;;
76035;SDS011;64732;56.314;44.068;2023-02-15T10:05:58;13.18;;;6.57;;
76035;SDS011;64732;56.314;44.068;2023-02-15T10:08:30;11.63;;;6.78;;
76035;SDS011;64732;56.314;44.068;2023-02-15T10:11:01;10.15;;;5.75;;
76035;SDS011;64732;56.314;44.068;2023-02-15T10:13:27;12.25;;;5.63;;
76035;SDS011;64732;56.314;44.068;2023-02-15T10:15:56;11.68;;;6.30;;
76035;SDS011;64732;56.314;44.068;2023-02-15T10:18:31;9.05;;;4.10;;
76035;SDS011;64732;56.314;44.068;2023-02-15T10:21:00;11.40;;;6.53;;
76035;SDS011;64732;56.314;44.068;2023-02-15T10:23:37;9.93;;;6.07;;
76035;SDS011;64732;56.314;44.068;2023-02-15T10:26:33;9.35;;;5.20;;
76035;SDS011;64732;56.314;44.068;2023-02-15T10:29:00;12.55;;;6.53;;
76035;SDS011;64732;56.314;44.068;2023-02-15T10:31:27;11.77;;;6.53;;
76035;SDS011;64732;56.314;44.068;2023-02-15T10:33:49;8.20;;;5.20;;
76035;SDS011;64732;56.314;44.068;2023-02-15T10:36:39;11.48;;;6.72;;
76035;SDS011;64732;56.314;44.068;2023-02-15T10:39:20;12.40;;;7.22;;
76035;SDS011;64732;56.314;44.068;2023-02-15T10:41:46;9.95;;;5.78;;
76035;SDS011;64732;56.314;44.068;2023-02-15T10:44:14;12.85;;;6.60;;
76035;SDS011;64732;56.314;44.068;2023-02-15T10:52:03;12.10;;;5.50;;
76035;SDS011;64732;56.314;44.068;2023-02-15T10:54:32;13.95;;;6.30;;
76035;SDS011;64732;56.314;44.068;2023-02-15T10:56:59;14.98;;;7.28;;
76035;SDS011;64732;56.314;44.068;2023-02-15T10:59:29;9.82;;;4.70;;
76035;SDS011;64732;56.314;44.068;2023-02-15T11:01:57;6.78;;;3.97;;
76035;SDS011;64732;56.314;44.068;2023-02-15T11:04:37;11.45;;;4.93;;
76035;SDS011;64732;56.314;44.068;2023-02-15T11:07:02;12.35;;;5.78;;
76035;SDS011;64732;56.314;44.068;2023-02-15T11:09:27;9.18;;;3.70;;
76035;SDS011;64732;56.314;44.068;2023-02-15T11:11:54;10.60;;;5.15;;
76035;SDS011;64732;56.314;44.068;2023-02-15T11:14:17;8.32;;;4.53;;
76035;SDS011;64732;56.314;44.068;2023-02-15T11:16:43;13.68;;;6.93;;
76035;SDS011;64732;56.314;44.068;2023-02-15T11:19:06;9.70;;;4.88;;
76035;SDS011;64732;56.314;44.068;2023-02-15T11:21:34;8.18;;;4.97;;
76035;SDS011;64732;56.314;44.068;2023-02-15T11:24:00;10.05;;;5.22;;
76035;SDS011;64732;56.314;44.068;2023-02-15T11:26:21;12.68;;;7.38;;
76035;SDS011;64732;56.314;44.068;2023-02-15T11:28:47;13.80;;;6.53;;
76035;SDS011;64732;56.314;44.068;2023-02-15T11:31:12;11.05;;;5.45;;
76035;SDS011;64732;56.314;44.068;2023-02-15T11:33:36;11.93;;;4.95;;
76035;SDS011;64732;56.314;44.068;2023-02-15T11:35:59;11.95;;;7.25;;
76035;SDS011;64732;56.314;44.068;2023-02-15T11:38:26;12.40;;;6.03;;
76035;SDS011;64732;56.314;44.068;2023-02-15T11:40:49;7.90;;;3.55;;
76035;SDS011;64732;56.314;44.068;2023-02-15T11:43:14;10.02;;;4.70;;
76035;SDS011;64732;56.314;44.068;2023-02-15T11:45:39;13.50;;;6.90;;
76035;SDS011;64732;56.314;44.068;2023-02-15T11:48:05;9.23;;;4.55;;
76035;SDS011;64732;56.314;44.068;2023-02-15T11:50:31;9.18;;;4.47;;
76035;SDS011;64732;56.314;44.068;2023-02-15T11:52:53;4.80;;;3.00;;
76035;SDS011;64732;56.314;44.068;2023-02-15T11:55:22;13.43;;;4.88;;
76035;SDS011;64732;56.314;44.068;2023-02-15T11:57:44;10.73;;;5.60;;
76035;SDS011;64732;56.314;44.068;2023-02-15T12:00:10;6.10;;;3.42;;
76035;SDS011;64732;56.314;44.068;2023-02-15T12:02:35;7.57;;;4.75;;
76035;SDS011;64732;56.314;44.068;2023-02-15T12:05:00;10.88;;;4.68;;
76035;SDS011;64732;56.314;44.068;2023-02-15T12:07:24;9.02;;;3.83;;
76035;SDS011;64732;56.314;44.068;2023-02-15T12:09:48;6.72;;;3.50;;
76035;SDS011;64732;56.314;44.068;2023-02-15T12:12:24;8.40;;;4.40;;
76035;SDS011;64732;56.314;44.068;2023-02-15T12:14:46;10.18;;;5.50;;
76035;SDS011;64732;56.314;44.068;2023-02-15T12:17:12;12.00;;;6.15;;
76035;SDS011;64732;56.314;44.068;2023-02-15T12:19:36;11.82;;;5.22;;
76035;SDS011;64732;56.314;44.068;2023-02-15T12:21:59;12.38;;;4.63;;
76035;SDS011;64732;56.314;44.068;2023-02-15T12:24:22;9.13;;;4.78;;
76035;SDS011;64732;56.314;44.068;2023-02-15T12:26:45;14.13;;;6.15;;
76035;SDS011;64732;56.314;44.068;2023-02-15T12:29:20;13.30;;;6.43;;
76035;SDS011;64732;56.314;44.068;2023-02-15T12:31:44;13.65;;;6.78;;
76035;SDS011;64732;56.314;44.068;2023-02-15T12:34:08;16.63;;;7.47;;
76035;SDS011;64732;56.314;44.068;2023-02-15T12:36:41;14.30;;;7.15;;
76035;SDS011;64732;56.314;44.068;2023-02-15T12:39:04;16.10;;;7.80;;
76035;SDS011;64732;56.314;44.068;2023-02-15T12:41:36;20.00;;;6.95;;
76035;SDS011;64732;56.314;44.068;2023-02-15T12:44:04;15.45;;;7.05;;
76035;SDS011;64732;56.314;44.068;2023-02-15T12:46:30;7.70;;;4.18;;
76035;SDS011;64732;56.314;44.068;2023-02-15T12:49:04;14.93;;;6.60;;
76035;SDS011;64732;56.314;44.068;2023-02-15T12:51:27;17.35;;;8.35;;
76035;SDS011;64732;56.314;44.068;2023-02-15T12:53:48;17.25;;;8.25;;
76035;SDS011;64732;56.314;44.068;2023-02-15T12:56:09;17.13;;;7.63;;
76035;SDS011;64732;56.314;44.068;2023-02-15T12:58:31;17.38;;;9.05;;
76035;SDS011;64732;56.314;44.068;2023-02-15T13:01:03;18.08;;;7.40;;
76035;SDS011;64732;56.314;44.068;2023-02-15T13:03:33;13.52;;;6.60;;
76035;SDS011;64732;56.314;44.068;2023-02-15T13:05:58;12.77;;;6.80;;
76035;SDS011;64732;56.314;44.068;2023-02-15T13:08:27;13.75;;;6.72;;
76035;SDS011;64732;56.314;44.068;2023-02-15T13:10:53;10.68;;;5.88;;
76035;SDS011;64732;56.314;44.068;2023-02-15T13:13:17;16.13;;;8.00;;
76035;SDS011;64732;56.314;44.068;2023-02-15T13:15:40;13.23;;;6.20;;
76035;SDS011;64732;56.314;44.068;2023-02-15T13:18:02;12.65;;;6.55;;
76035;SDS011;64732;56.314;44.068;2023-02-15T13:20:27;15.32;;;7.15;;
76035;SDS011;64732;56.314;44.068;2023-02-15T13:22:51;8.43;;;4.45;;
76035;SDS011;64732;56.314;44.068;2023-02-15T13:25:15;18.25;;;8.45;;
76035;SDS011;64732;56.314;44.068;2023-02-15T13:27:39;11.98;;;5.60;;
76035;SDS011;64732;56.314;44.068;2023-02-15T13:30:02;13.75;;;6.00;;
76035;SDS011;64732;56.314;44.068;2023-02-15T13:32:29;7.35;;;3.92;;
76035;SDS011;64732;56.314;44.068;2023-02-15T13:34:53;10.35;;;5.10;;
76035;SDS011;64732;56.314;44.068;2023-02-15T13:37:20;17.10;;;7.35;;
76035;SDS011;64732;56.314;44.068;2023-02-15T13:39:46;11.50;;;6.05;;
76035;SDS011;64732;56.314;44.068;2023-02-15T13:42:14;12.65;;;6.75;;
76035;SDS011;64732;56.314;44.068;2023-02-15T13:44:53;13.65;;;5.18;;
76035;SDS011;64732;56.314;44.068;2023-02-15T13:47:25;16.70;;;8.88;;
76035;SDS011;64732;56.314;44.068;2023-02-15T13:49:52;10.32;;;3.85;;
76035;SDS011;64732;56.314;44.068;2023-02-15T13:52:23;18.48;;;7.93;;
76035;SDS011;64732;56.314;44.068;2023-02-15T13:57:35;14.00;;;6.97;;
76035;SDS011;64732;56.314;44.068;2023-02-15T14:00:09;11.25;;;5.70;;
76035;SDS011;64732;56.314;44.068;2023-02-15T14:02:46;13.93;;;6.25;;
76035;SDS011;64732;56.314;44.068;2023-02-15T14:08:04;16.60;;;7.22;;
76035;SDS011;64732;56.314;44.068;2023-02-15T14:10:34;10.05;;;5.20;;
76035;SDS011;64732;56.314;44.068;2023-02-15T14:15:28;8.55;;;3.03;;
76035;SDS011;64732;56.314;44.068;2023-02-15T14:17:55;6.45;;;4.35;;
76035;SDS011;64732;56.314;44.068;2023-02-15T14:20:24;15.85;;;7.97;;
76035;SDS011;64732;56.314;44.068;2023-02-15T14:22:49;16.23;;;6.82;;
76035;SDS011;64732;56.314;44.068;2023-02-15T14:25:18;9.45;;;4.50;;
76035;SDS011;64732;56.314;44.068;2023-02-15T14:27:49;19.40;;;8.57;;
76035;SDS011;64732;56.314;44.068;2023-02-15T14:30:15;16.55;;;7.22;;
76035;SDS011;64732;56.314;44.068;2023-02-15T14:32:41;18.88;;;7.88;;
76035;SDS011;64732;56.314;44.068;2023-02-15T14:35:04;15.02;;;8.23;;
76035;SDS011;64732;56.314;44.068;2023-02-15T14:37:36;16.38;;;6.50;;
76035;SDS011;64732;56.314;44.068;2023-02-15T14:40:03;9.60;;;5.43;;